sensor_id;sensor_type;location;lat;lon;timestamp;pressure;altitude;pressure_sealevel;temperature
67353;BMP180;54238;52.278;21.056;2022-08-01T00:02:58;100088.00;;;16.70
67353;BMP180;54238;52.278;21.056;2022-08-01T00:05:25;100088.60;;;16.70
67353;BMP180;54238;52.278;21.056;2022-08-01T00:07:57;100085.60;;;16.70
67353;BMP180;54238;52.278;21.056;2022-08-01T00:10:26;100086.40;;;16.70
67353;BMP180;54238;52.278;21.056;2022-08-01T00:12:53;100080.60;;;16.70
67353;BMP180;54238;52.278;21.056;2022-08-01T00:15:25;100080.80;;;16.70
67353;BMP180;54238;52.278;21.056;2022-08-01T00:17:54;100080.40;;;16.70
67353;BMP180;54238;52.278;21.056;2022-08-01T00:20:31;100076.00;;;16.70
67353;BMP180;54238;52.278;21.056;2022-08-01T00:23:02;100080.00;;;16.62
67353;BMP180;54238;52.278;21.056;2022-08-01T00:26:04;100079.40;;;16.60
67353;BMP180;54238;52.278;21.056;2022-08-01T00:28:33;100074.20;;;16.60
67353;BMP180;54238;52.278;21.056;2022-08-01T00:31:01;100073.80;;;16.60
67353;BMP180;54238;52.278;21.056;2022-08-01T00:33:30;100073.80;;;16.60
67353;BMP180;54238;52.278;21.056;2022-08-01T00:36:01;100068.60;;;16.60
67353;BMP180;54238;52.278;21.056;2022-08-01T00:38:31;100070.20;;;16.60
67353;BMP180;54238;52.278;21.056;2022-08-01T00:43:55;100062.60;;;16.60
67353;BMP180;54238;52.278;21.056;2022-08-01T00:46:22;100060.20;;;16.60
67353;BMP180;54238;52.278;21.056;2022-08-01T00:48:51;100063.60;;;16.60
67353;BMP180;54238;52.278;21.056;2022-08-01T00:51:27;100063.80;;;16.60
67353;BMP180;54238;52.278;21.056;2022-08-01T00:53:57;100063.80;;;16.60
67353;BMP180;54238;52.278;21.056;2022-08-01T00:56:56;100061.00;;;16.60
67353;BMP180;54238;52.278;21.056;2022-08-01T00:59:31;100066.20;;;16.54
67353;BMP180;54238;52.278;21.056;2022-08-01T01:02:01;100069.20;;;16.50
67353;BMP180;54238;52.278;21.056;2022-08-01T01:04:30;100066.40;;;16.50
67353;BMP180;54238;52.278;21.056;2022-08-01T01:07:15;100068.60;;;16.50
67353;BMP180;54238;52.278;21.056;2022-08-01T01:10:03;100071.00;;;16.50
67353;BMP180;54238;52.278;21.056;2022-08-01T01:12:51;100065.80;;;16.50
67353;BMP180;54238;52.278;21.056;2022-08-01T01:15:26;100064.40;;;16.50
67353;BMP180;54238;52.278;21.056;2022-08-01T01:18:12;100065.60;;;16.50
67353;BMP180;54238;52.278;21.056;2022-08-01T01:20:44;100068.80;;;16.50
67353;BMP180;54238;52.278;21.056;2022-08-01T01:23:34;100064.40;;;16.44
67353;BMP180;54238;52.278;21.056;2022-08-01T01:29:03;100063.00;;;16.40
67353;BMP180;54238;52.278;21.056;2022-08-01T01:31:47;100058.60;;;16.40
67353;BMP180;54238;52.278;21.056;2022-08-01T01:34:18;100059.80;;;16.40
67353;BMP180;54238;52.278;21.056;2022-08-01T01:36:49;100059.40;;;16.40
67353;BMP180;54238;52.278;21.056;2022-08-01T01:39:21;100056.00;;;16.36
67353;BMP180;54238;52.278;21.056;2022-08-01T01:41:51;100061.40;;;16.30
67353;BMP180;54238;52.278;21.056;2022-08-01T01:44:20;100062.60;;;16.30
67353;BMP180;54238;52.278;21.056;2022-08-01T01:46:49;100057.00;;;16.30
67353;BMP180;54238;52.278;21.056;2022-08-01T01:49:26;100059.80;;;16.30
67353;BMP180;54238;52.278;21.056;2022-08-01T01:52:00;100061.80;;;16.20
67353;BMP180;54238;52.278;21.056;2022-08-01T01:54:37;100063.00;;;16.20
67353;BMP180;54238;52.278;21.056;2022-08-01T01:57:12;100064.20;;;16.10
67353;BMP180;54238;52.278;21.056;2022-08-01T01:59:44;100064.60;;;16.10
67353;BMP180;54238;52.278;21.056;2022-08-01T02:02:14;100066.80;;;16.08
67353;BMP180;54238;52.278;21.056;2022-08-01T02:04:46;100067.20;;;16.00
67353;BMP180;54238;52.278;21.056;2022-08-01T02:07:22;100063.40;;;16.00
67353;BMP180;54238;52.278;21.056;2022-08-01T02:09:52;100055.80;;;16.00
67353;BMP180;54238;52.278;21.056;2022-08-01T02:12:21;100047.80;;;16.00
67353;BMP180;54238;52.278;21.056;2022-08-01T02:14:53;100052.40;;;16.00
67353;BMP180;54238;52.278;21.056;2022-08-01T02:17:26;100053.20;;;16.00
67353;BMP180;54238;52.278;21.056;2022-08-01T02:19:54;100052.20;;;16.00
67353;BMP180;54238;52.278;21.056;2022-08-01T02:22:31;100044.20;;;15.98
67353;BMP180;54238;52.278;21.056;2022-08-01T02:25:14;100041.20;;;15.90
67353;BMP180;54238;52.278;21.056;2022-08-01T02:28:07;100046.00;;;15.90
67353;BMP180;54238;52.278;21.056;2022-08-01T02:30:42;100051.40;;;15.90
67353;BMP180;54238;52.278;21.056;2022-08-01T02:33:22;100046.20;;;15.80
67353;BMP180;54238;52.278;21.056;2022-08-01T02:35:58;100051.00;;;15.80
67353;BMP180;54238;52.278;21.056;2022-08-01T02:38:35;100056.00;;;15.80
67353;BMP180;54238;52.278;21.056;2022-08-01T02:41:12;100057.00;;;15.80
67353;BMP180;54238;52.278;21.056;2022-08-01T02:43:46;100057.80;;;15.78
67353;BMP180;54238;52.278;21.056;2022-08-01T02:46:24;100057.40;;;15.70
67353;BMP180;54238;52.278;21.056;2022-08-01T02:48:58;100059.00;;;15.70
67353;BMP180;54238;52.278;21.056;2022-08-01T02:51:30;100058.60;;;15.70
67353;BMP180;54238;52.278;21.056;2022-08-01T02:54:01;100058.40;;;15.66
67353;BMP180;54238;52.278;21.056;2022-08-01T02:56:32;100059.60;;;15.60
67353;BMP180;54238;52.278;21.056;2022-08-01T02:59:16;100062.00;;;15.60
67353;BMP180;54238;52.278;21.056;2022-08-01T03:01:47;100062.00;;;15.60
67353;BMP180;54238;52.278;21.056;2022-08-01T03:04:24;100063.80;;;15.60
67353;BMP180;54238;52.278;21.056;2022-08-01T03:06:55;100066.40;;;15.56
67353;BMP180;54238;52.278;21.056;2022-08-01T03:09:33;100073.00;;;15.50
67353;BMP180;54238;52.278;21.056;2022-08-01T03:12:11;100077.00;;;15.50
67353;BMP180;54238;52.278;21.056;2022-08-01T03:14:49;100072.40;;;15.50
67353;BMP180;54238;52.278;21.056;2022-08-01T03:17:21;100068.40;;;15.42
67353;BMP180;54238;52.278;21.056;2022-08-01T03:19:53;100074.20;;;15.40
67353;BMP180;54238;52.278;21.056;2022-08-01T03:22:24;100071.60;;;15.40
67353;BMP180;54238;52.278;21.056;2022-08-01T03:24:59;100071.00;;;15.40
67353;BMP180;54238;52.278;21.056;2022-08-01T03:27:29;100070.40;;;15.40
67353;BMP180;54238;52.278;21.056;2022-08-01T03:30:04;100068.20;;;15.30
67353;BMP180;54238;52.278;21.056;2022-08-01T03:32:33;100072.00;;;15.30
67353;BMP180;54238;52.278;21.056;2022-08-01T03:35:02;100069.00;;;15.30
67353;BMP180;54238;52.278;21.056;2022-08-01T03:37:41;100072.60;;;15.30
67353;BMP180;54238;52.278;21.056;2022-08-01T03:40:28;100074.60;;;15.30
67353;BMP180;54238;52.278;21.056;2022-08-01T03:43:08;100077.20;;;15.30
67353;BMP180;54238;52.278;21.056;2022-08-01T03:45:46;100077.60;;;15.22
67353;BMP180;54238;52.278;21.056;2022-08-01T03:48:22;100085.00;;;15.30
67353;BMP180;54238;52.278;21.056;2022-08-01T03:50:56;100088.00;;;15.28
67353;BMP180;54238;52.278;21.056;2022-08-01T03:53:31;100089.60;;;15.28
67353;BMP180;54238;52.278;21.056;2022-08-01T03:56:03;100088.00;;;15.30
67353;BMP180;54238;52.278;21.056;2022-08-01T03:58:36;100085.80;;;15.30
67353;BMP180;54238;52.278;21.056;2022-08-01T04:01:08;100087.60;;;15.30
67353;BMP180;54238;52.278;21.056;2022-08-01T04:03:41;100091.00;;;15.34
67353;BMP180;54238;52.278;21.056;2022-08-01T04:06:09;100092.00;;;15.40
67353;BMP180;54238;52.278;21.056;2022-08-01T04:08:38;100097.40;;;15.40
67353;BMP180;54238;52.278;21.056;2022-08-01T04:11:08;100097.80;;;15.40
67353;BMP180;54238;52.278;21.056;2022-08-01T04:13:36;100103.80;;;15.48
67353;BMP180;54238;52.278;21.056;2022-08-01T04:16:10;100101.40;;;15.50
67353;BMP180;54238;52.278;21.056;2022-08-01T04:18:39;100108.80;;;15.50
67353;BMP180;54238;52.278;21.056;2022-08-01T04:21:09;100108.00;;;15.56
67353;BMP180;54238;52.278;21.056;2022-08-01T04:23:38;100106.20;;;15.60
67353;BMP180;54238;52.278;21.056;2022-08-01T04:26:11;100112.20;;;15.60
67353;BMP180;54238;52.278;21.056;2022-08-01T04:28:45;100112.20;;;15.70
67353;BMP180;54238;52.278;21.056;2022-08-01T04:31:17;100112.20;;;15.70
67353;BMP180;54238;52.278;21.056;2022-08-01T04:33:53;100114.60;;;15.70
67353;BMP180;54238;52.278;21.056;2022-08-01T04:36:25;100117.00;;;15.80
67353;BMP180;54238;52.278;21.056;2022-08-01T04:39:01;100120.80;;;15.80
67353;BMP180;54238;52.278;21.056;2022-08-01T04:41:30;100118.20;;;15.80
67353;BMP180;54238;52.278;21.056;2022-08-01T04:44:00;100120.20;;;15.80
67353;BMP180;54238;52.278;21.056;2022-08-01T04:46:34;100126.00;;;15.82
67353;BMP180;54238;52.278;21.056;2022-08-01T04:49:06;100122.00;;;15.90
67353;BMP180;54238;52.278;21.056;2022-08-01T04:51:35;100120.60;;;15.90
67353;BMP180;54238;52.278;21.056;2022-08-01T04:54:02;100121.20;;;15.90
67353;BMP180;54238;52.278;21.056;2022-08-01T04:56:34;100118.80;;;16.00
67353;BMP180;54238;52.278;21.056;2022-08-01T04:59:09;100123.60;;;16.00
67353;BMP180;54238;52.278;21.056;2022-08-01T05:01:54;100125.00;;;16.00
67353;BMP180;54238;52.278;21.056;2022-08-01T05:04:23;100128.80;;;16.10
67353;BMP180;54238;52.278;21.056;2022-08-01T05:06:50;100130.80;;;16.10
67353;BMP180;54238;52.278;21.056;2022-08-01T05:09:27;100130.60;;;16.10
67353;BMP180;54238;52.278;21.056;2022-08-01T05:11:58;100131.00;;;16.10
67353;BMP180;54238;52.278;21.056;2022-08-01T05:17:23;100132.00;;;16.10
67353;BMP180;54238;52.278;21.056;2022-08-01T05:19:55;100142.00;;;16.10
67353;BMP180;54238;52.278;21.056;2022-08-01T05:22:27;100143.80;;;16.10
67353;BMP180;54238;52.278;21.056;2022-08-01T05:25:12;100146.60;;;16.00
67353;BMP180;54238;52.278;21.056;2022-08-01T05:27:42;100146.40;;;16.00
67353;BMP180;54238;52.278;21.056;2022-08-01T05:30:15;100141.00;;;16.00
67353;BMP180;54238;52.278;21.056;2022-08-01T05:32:44;100142.00;;;15.90
67353;BMP180;54238;52.278;21.056;2022-08-01T05:35:16;100144.20;;;15.90
67353;BMP180;54238;52.278;21.056;2022-08-01T05:37:50;100144.80;;;15.90
67353;BMP180;54238;52.278;21.056;2022-08-01T05:43:18;100150.00;;;15.90
67353;BMP180;54238;52.278;21.056;2022-08-01T05:45:45;100151.60;;;15.90
67353;BMP180;54238;52.278;21.056;2022-08-01T05:48:14;100151.80;;;15.94
67353;BMP180;54238;52.278;21.056;2022-08-01T05:50:46;100159.60;;;16.00
67353;BMP180;54238;52.278;21.056;2022-08-01T05:53:14;100158.60;;;16.10
67353;BMP180;54238;52.278;21.056;2022-08-01T05:58:42;100160.80;;;16.20
67353;BMP180;54238;52.278;21.056;2022-08-01T06:01:11;100161.40;;;16.20
67353;BMP180;54238;52.278;21.056;2022-08-01T06:03:38;100161.40;;;16.30
67353;BMP180;54238;52.278;21.056;2022-08-01T06:08:59;100165.60;;;16.40
67353;BMP180;54238;52.278;21.056;2022-08-01T06:11:28;100166.40;;;16.50
67353;BMP180;54238;52.278;21.056;2022-08-01T06:13:58;100171.40;;;16.50
67353;BMP180;54238;52.278;21.056;2022-08-01T06:16:32;100165.20;;;16.60
67353;BMP180;54238;52.278;21.056;2022-08-01T06:19:04;100171.40;;;16.60
67353;BMP180;54238;52.278;21.056;2022-08-01T06:21:42;100167.80;;;16.70
67353;BMP180;54238;52.278;21.056;2022-08-01T06:24:08;100164.20;;;16.80
67353;BMP180;54238;52.278;21.056;2022-08-01T06:29:38;100169.80;;;17.00
67353;BMP180;54238;52.278;21.056;2022-08-01T06:32:05;100167.60;;;17.04
67353;BMP180;54238;52.278;21.056;2022-08-01T06:34:33;100167.40;;;17.10
67353;BMP180;54238;52.278;21.056;2022-08-01T06:40:07;100172.00;;;17.24
67353;BMP180;54238;52.278;21.056;2022-08-01T06:42:40;100170.20;;;17.40
67353;BMP180;54238;52.278;21.056;2022-08-01T06:45:13;100175.60;;;17.50
67353;BMP180;54238;52.278;21.056;2022-08-01T06:47:45;100176.80;;;17.60
67353;BMP180;54238;52.278;21.056;2022-08-01T06:50:17;100178.00;;;17.70
67353;BMP180;54238;52.278;21.056;2022-08-01T06:52:44;100174.80;;;17.90
67353;BMP180;54238;52.278;21.056;2022-08-01T06:55:12;100177.80;;;18.00
67353;BMP180;54238;52.278;21.056;2022-08-01T06:57:49;100176.80;;;18.10
67353;BMP180;54238;52.278;21.056;2022-08-01T07:00:25;100171.00;;;18.26
67353;BMP180;54238;52.278;21.056;2022-08-01T07:02:57;100173.80;;;18.40
67353;BMP180;54238;52.278;21.056;2022-08-01T07:05:25;100172.00;;;18.50
67353;BMP180;54238;52.278;21.056;2022-08-01T07:07:55;100173.80;;;18.60
67353;BMP180;54238;52.278;21.056;2022-08-01T07:10:22;100176.20;;;18.70
67353;BMP180;54238;52.278;21.056;2022-08-01T07:12:51;100171.20;;;18.80
67353;BMP180;54238;52.278;21.056;2022-08-01T07:15:23;100173.40;;;18.80
67353;BMP180;54238;52.278;21.056;2022-08-01T07:17:55;100168.60;;;18.90
67353;BMP180;54238;52.278;21.056;2022-08-01T07:20:25;100172.00;;;19.00
67353;BMP180;54238;52.278;21.056;2022-08-01T07:22:57;100175.60;;;19.10
67353;BMP180;54238;52.278;21.056;2022-08-01T07:25:29;100175.00;;;19.20
67353;BMP180;54238;52.278;21.056;2022-08-01T07:27:58;100174.60;;;19.22
67353;BMP180;54238;52.278;21.056;2022-08-01T07:30:27;100171.80;;;19.30
67353;BMP180;54238;52.278;21.056;2022-08-01T07:32:54;100166.80;;;19.40
67353;BMP180;54238;52.278;21.056;2022-08-01T07:35:22;100169.60;;;19.40
67353;BMP180;54238;52.278;21.056;2022-08-01T07:37:49;100166.60;;;19.40
67353;BMP180;54238;52.278;21.056;2022-08-01T07:40:17;100165.20;;;19.50
67353;BMP180;54238;52.278;21.056;2022-08-01T07:42:46;100170.80;;;19.60
67353;BMP180;54238;52.278;21.056;2022-08-01T07:45:13;100167.20;;;19.70
67353;BMP180;54238;52.278;21.056;2022-08-01T07:48:05;100160.40;;;19.80
67353;BMP180;54238;52.278;21.056;2022-08-01T07:50:35;100168.60;;;19.96
67353;BMP180;54238;52.278;21.056;2022-08-01T07:53:02;100171.60;;;20.08
67353;BMP180;54238;52.278;21.056;2022-08-01T07:55:30;100169.20;;;20.16
67353;BMP180;54238;52.278;21.056;2022-08-01T07:58:00;100164.60;;;20.30
67353;BMP180;54238;52.278;21.056;2022-08-01T08:00:29;100166.00;;;20.38
67353;BMP180;54238;52.278;21.056;2022-08-01T08:02:57;100160.40;;;20.30
67353;BMP180;54238;52.278;21.056;2022-08-01T08:05:26;100157.40;;;20.32
67353;BMP180;54238;52.278;21.056;2022-08-01T08:07:56;100162.80;;;20.42
67353;BMP180;54238;52.278;21.056;2022-08-01T08:10:23;100163.40;;;20.58
67353;BMP180;54238;52.278;21.056;2022-08-01T08:12:50;100158.80;;;20.70
67353;BMP180;54238;52.278;21.056;2022-08-01T08:15:19;100159.60;;;20.80
67353;BMP180;54238;52.278;21.056;2022-08-01T08:17:51;100166.60;;;20.90
67353;BMP180;54238;52.278;21.056;2022-08-01T08:20:23;100167.00;;;20.84
67353;BMP180;54238;52.278;21.056;2022-08-01T08:22:55;100168.00;;;20.90
67353;BMP180;54238;52.278;21.056;2022-08-01T08:25:52;100170.40;;;21.00
67353;BMP180;54238;52.278;21.056;2022-08-01T08:28:21;100175.40;;;21.16
67353;BMP180;54238;52.278;21.056;2022-08-01T08:30:53;100179.60;;;21.16
67353;BMP180;54238;52.278;21.056;2022-08-01T08:33:21;100174.00;;;21.20
67353;BMP180;54238;52.278;21.056;2022-08-01T08:35:54;100173.40;;;21.28
67353;BMP180;54238;52.278;21.056;2022-08-01T08:38:21;100172.60;;;21.34
67353;BMP180;54238;52.278;21.056;2022-08-01T08:41:21;100170.00;;;21.40
67353;BMP180;54238;52.278;21.056;2022-08-01T08:43:50;100172.20;;;21.40
67353;BMP180;54238;52.278;21.056;2022-08-01T08:46:22;100182.40;;;21.50
67353;BMP180;54238;52.278;21.056;2022-08-01T08:48:51;100181.20;;;21.62
67353;BMP180;54238;52.278;21.056;2022-08-01T08:51:29;100189.60;;;21.80
67353;BMP180;54238;52.278;21.056;2022-08-01T08:53:57;100190.60;;;21.80
67353;BMP180;54238;52.278;21.056;2022-08-01T08:56:51;100190.80;;;21.82
67353;BMP180;54238;52.278;21.056;2022-08-01T08:59:22;100189.80;;;21.90
67353;BMP180;54238;52.278;21.056;2022-08-01T09:01:51;100201.20;;;22.00
67353;BMP180;54238;52.278;21.056;2022-08-01T09:04:25;100191.40;;;22.10
67353;BMP180;54238;52.278;21.056;2022-08-01T09:06:54;100202.60;;;22.30
67353;BMP180;54238;52.278;21.056;2022-08-01T09:09:23;100199.60;;;22.34
67353;BMP180;54238;52.278;21.056;2022-08-01T09:12:00;100201.00;;;22.40
67353;BMP180;54238;52.278;21.056;2022-08-01T09:14:32;100205.20;;;22.60
67353;BMP180;54238;52.278;21.056;2022-08-01T09:17:39;100208.60;;;22.80
67353;BMP180;54238;52.278;21.056;2022-08-01T09:20:22;100213.40;;;23.10
67353;BMP180;54238;52.278;21.056;2022-08-01T09:22:50;100211.20;;;23.10
67353;BMP180;54238;52.278;21.056;2022-08-01T09:25:17;100213.20;;;23.20
67353;BMP180;54238;52.278;21.056;2022-08-01T09:27:47;100209.00;;;23.20
67353;BMP180;54238;52.278;21.056;2022-08-01T09:30:18;100212.20;;;23.30
67353;BMP180;54238;52.278;21.056;2022-08-01T09:33:25;100219.40;;;23.40
67353;BMP180;54238;52.278;21.056;2022-08-01T09:36:16;100214.80;;;23.60
67353;BMP180;54238;52.278;21.056;2022-08-01T09:38:43;100213.80;;;23.90
67353;BMP180;54238;52.278;21.056;2022-08-01T09:41:10;100222.40;;;24.20
67353;BMP180;54238;52.278;21.056;2022-08-01T09:43:48;100226.40;;;24.40
67353;BMP180;54238;52.278;21.056;2022-08-01T09:46:18;100218.40;;;24.52
67353;BMP180;54238;52.278;21.056;2022-08-01T09:48:57;100212.40;;;24.76
67353;BMP180;54238;52.278;21.056;2022-08-01T09:51:34;100209.00;;;24.80
67353;BMP180;54238;52.278;21.056;2022-08-01T09:54:54;100211.80;;;24.90
67353;BMP180;54238;52.278;21.056;2022-08-01T09:57:55;100221.40;;;25.10
67353;BMP180;54238;52.278;21.056;2022-08-01T10:00:22;100214.40;;;25.20
67353;BMP180;54238;52.278;21.056;2022-08-01T10:02:49;100221.20;;;25.38
67353;BMP180;54238;52.278;21.056;2022-08-01T10:05:16;100211.80;;;25.40
67353;BMP180;54238;52.278;21.056;2022-08-01T10:08:03;100219.20;;;25.52
67353;BMP180;54238;52.278;21.056;2022-08-01T10:10:33;100217.60;;;25.60
67353;BMP180;54238;52.278;21.056;2022-08-01T10:13:04;100215.60;;;25.80
67353;BMP180;54238;52.278;21.056;2022-08-01T10:15:32;100211.60;;;26.02
67353;BMP180;54238;52.278;21.056;2022-08-01T10:18:06;100212.60;;;26.28
67353;BMP180;54238;52.278;21.056;2022-08-01T10:20:34;100216.00;;;26.58
67353;BMP180;54238;52.278;21.056;2022-08-01T10:23:03;100225.20;;;26.70
67353;BMP180;54238;52.278;21.056;2022-08-01T10:25:39;100214.40;;;26.60
67353;BMP180;54238;52.278;21.056;2022-08-01T10:28:14;100220.20;;;26.80
67353;BMP180;54238;52.278;21.056;2022-08-01T10:30:43;100214.60;;;26.98
67353;BMP180;54238;52.278;21.056;2022-08-01T10:33:31;100207.80;;;27.12
67353;BMP180;54238;52.278;21.056;2022-08-01T10:35:58;100204.60;;;27.28
67353;BMP180;54238;52.278;21.056;2022-08-01T10:38:27;100217.40;;;27.50
67353;BMP180;54238;52.278;21.056;2022-08-01T10:40:58;100221.00;;;27.50
67353;BMP180;54238;52.278;21.056;2022-08-01T10:43:30;100224.40;;;27.60
67353;BMP180;54238;52.278;21.056;2022-08-01T10:45:58;100218.80;;;27.80
67353;BMP180;54238;52.278;21.056;2022-08-01T10:48:40;100222.80;;;27.90
67353;BMP180;54238;52.278;21.056;2022-08-01T10:51:12;100217.40;;;28.00
67353;BMP180;54238;52.278;21.056;2022-08-01T10:53:54;100213.00;;;28.34
67353;BMP180;54238;52.278;21.056;2022-08-01T10:56:22;100216.60;;;28.80
67353;BMP180;54238;52.278;21.056;2022-08-01T10:59:00;100209.60;;;29.16
67353;BMP180;54238;52.278;21.056;2022-08-01T11:01:32;100214.00;;;29.50
67353;BMP180;54238;52.278;21.056;2022-08-01T11:04:13;100211.00;;;29.70
67353;BMP180;54238;52.278;21.056;2022-08-01T11:09:24;100215.80;;;29.70
67353;BMP180;54238;52.278;21.056;2022-08-01T11:15:15;100208.60;;;29.40
67353;BMP180;54238;52.278;21.056;2022-08-01T11:20:10;100205.80;;;29.80
67353;BMP180;54238;52.278;21.056;2022-08-01T11:30:53;100215.20;;;30.40
67353;BMP180;54238;52.278;21.056;2022-08-01T11:39:14;100218.40;;;30.20
67353;BMP180;54238;52.278;21.056;2022-08-01T11:41:48;100223.00;;;30.36
67353;BMP180;54238;52.278;21.056;2022-08-01T11:44:22;100216.20;;;30.70
67353;BMP180;54238;52.278;21.056;2022-08-01T11:47:03;100215.40;;;31.10
67353;BMP180;54238;52.278;21.056;2022-08-01T11:52:09;100213.60;;;31.86
67353;BMP180;54238;52.278;21.056;2022-08-01T11:57:27;100215.00;;;32.10
67353;BMP180;54238;52.278;21.056;2022-08-01T12:00:03;100214.40;;;32.10
67353;BMP180;54238;52.278;21.056;2022-08-01T12:02:35;100219.00;;;32.10
67353;BMP180;54238;52.278;21.056;2022-08-01T12:05:12;100218.00;;;31.90
67353;BMP180;54238;52.278;21.056;2022-08-01T12:07:44;100212.80;;;31.72
67353;BMP180;54238;52.278;21.056;2022-08-01T12:10:19;100225.40;;;31.80
67353;BMP180;54238;52.278;21.056;2022-08-01T12:12:55;100221.20;;;31.74
67353;BMP180;54238;52.278;21.056;2022-08-01T12:15:34;100221.20;;;31.50
67353;BMP180;54238;52.278;21.056;2022-08-01T12:18:05;100220.60;;;31.46
67353;BMP180;54238;52.278;21.056;2022-08-01T12:20:41;100225.80;;;31.50
67353;BMP180;54238;52.278;21.056;2022-08-01T12:23:13;100217.20;;;31.40
67353;BMP180;54238;52.278;21.056;2022-08-01T12:25:41;100214.80;;;31.60
67353;BMP180;54238;52.278;21.056;2022-08-01T12:28:12;100216.00;;;31.82
67353;BMP180;54238;52.278;21.056;2022-08-01T12:30:41;100214.40;;;32.00
67353;BMP180;54238;52.278;21.056;2022-08-01T12:33:18;100222.40;;;32.06
67353;BMP180;54238;52.278;21.056;2022-08-01T12:35:53;100216.60;;;32.20
67353;BMP180;54238;52.278;21.056;2022-08-01T12:38:25;100215.60;;;32.60
67353;BMP180;54238;52.278;21.056;2022-08-01T12:40:54;100217.00;;;32.98
67353;BMP180;54238;52.278;21.056;2022-08-01T12:43:34;100221.40;;;33.00
67353;BMP180;54238;52.278;21.056;2022-08-01T12:46:03;100213.40;;;33.00
67353;BMP180;54238;52.278;21.056;2022-08-01T12:49:02;100223.00;;;33.10
67353;BMP180;54238;52.278;21.056;2022-08-01T12:51:32;100215.20;;;33.30
67353;BMP180;54238;52.278;21.056;2022-08-01T12:53:59;100225.80;;;33.50
67353;BMP180;54238;52.278;21.056;2022-08-01T12:56:40;100217.60;;;33.70
67353;BMP180;54238;52.278;21.056;2022-08-01T12:59:25;100215.60;;;33.72
67353;BMP180;54238;52.278;21.056;2022-08-01T13:01:55;100214.00;;;33.80
67353;BMP180;54238;52.278;21.056;2022-08-01T13:04:25;100214.40;;;33.80
67353;BMP180;54238;52.278;21.056;2022-08-01T13:06:55;100213.80;;;33.70
67353;BMP180;54238;52.278;21.056;2022-08-01T13:09:24;100211.60;;;33.80
67353;BMP180;54238;52.278;21.056;2022-08-01T13:11:53;100211.00;;;33.88
67353;BMP180;54238;52.278;21.056;2022-08-01T13:14:31;100209.40;;;34.00
67353;BMP180;54238;52.278;21.056;2022-08-01T13:16:58;100207.60;;;34.10
67353;BMP180;54238;52.278;21.056;2022-08-01T13:19:59;100205.60;;;33.92
67353;BMP180;54238;52.278;21.056;2022-08-01T13:22:37;100208.00;;;34.20
67353;BMP180;54238;52.278;21.056;2022-08-01T13:25:16;100212.60;;;34.18
67353;BMP180;54238;52.278;21.056;2022-08-01T13:27:45;100210.00;;;34.00
67353;BMP180;54238;52.278;21.056;2022-08-01T13:30:18;100208.20;;;33.82
67353;BMP180;54238;52.278;21.056;2022-08-01T13:32:59;100205.60;;;33.70
67353;BMP180;54238;52.278;21.056;2022-08-01T13:35:28;100205.80;;;33.90
67353;BMP180;54238;52.278;21.056;2022-08-01T13:37:57;100207.40;;;33.98
67353;BMP180;54238;52.278;21.056;2022-08-01T13:40:27;100206.80;;;34.12
67353;BMP180;54238;52.278;21.056;2022-08-01T13:42:54;100212.00;;;34.20
67353;BMP180;54238;52.278;21.056;2022-08-01T13:45:31;100207.80;;;34.40
67353;BMP180;54238;52.278;21.056;2022-08-01T13:48:04;100202.60;;;34.46
67353;BMP180;54238;52.278;21.056;2022-08-01T13:50:39;100207.20;;;34.76
67353;BMP180;54238;52.278;21.056;2022-08-01T13:53:06;100210.00;;;35.00
67353;BMP180;54238;52.278;21.056;2022-08-01T13:55:44;100204.40;;;35.26
67353;BMP180;54238;52.278;21.056;2022-08-01T13:58:14;100213.40;;;34.90
67353;BMP180;54238;52.278;21.056;2022-08-01T14:00:55;100214.40;;;34.86
67353;BMP180;54238;52.278;21.056;2022-08-01T14:03:22;100219.00;;;35.00
67353;BMP180;54238;52.278;21.056;2022-08-01T14:05:49;100222.60;;;34.88
67353;BMP180;54238;52.278;21.056;2022-08-01T14:08:26;100218.60;;;34.32
67353;BMP180;54238;52.278;21.056;2022-08-01T14:11:02;100233.60;;;34.16
67353;BMP180;54238;52.278;21.056;2022-08-01T14:13:36;100223.20;;;33.80
67353;BMP180;54238;52.278;21.056;2022-08-01T14:16:09;100227.80;;;33.96
67353;BMP180;54238;52.278;21.056;2022-08-01T14:18:46;100217.60;;;34.32
67353;BMP180;54238;52.278;21.056;2022-08-01T14:21:16;100221.60;;;34.76
67353;BMP180;54238;52.278;21.056;2022-08-01T14:23:43;100226.80;;;35.16
67353;BMP180;54238;52.278;21.056;2022-08-01T14:26:12;100229.20;;;35.38
67353;BMP180;54238;52.278;21.056;2022-08-01T14:28:42;100237.80;;;35.60
67353;BMP180;54238;52.278;21.056;2022-08-01T14:31:12;100239.40;;;35.50
67353;BMP180;54238;52.278;21.056;2022-08-01T14:33:41;100235.40;;;35.52
67353;BMP180;54238;52.278;21.056;2022-08-01T14:36:08;100237.40;;;35.80
67353;BMP180;54238;52.278;21.056;2022-08-01T14:38:40;100240.20;;;36.10
67353;BMP180;54238;52.278;21.056;2022-08-01T14:41:13;100249.00;;;36.24
67353;BMP180;54238;52.278;21.056;2022-08-01T14:43:43;100239.40;;;36.40
67353;BMP180;54238;52.278;21.056;2022-08-01T14:46:13;100243.80;;;36.40
67353;BMP180;54238;52.278;21.056;2022-08-01T14:48:42;100237.60;;;35.90
67353;BMP180;54238;52.278;21.056;2022-08-01T14:51:12;100245.00;;;35.68
67353;BMP180;54238;52.278;21.056;2022-08-01T14:53:39;100246.20;;;35.20
67353;BMP180;54238;52.278;21.056;2022-08-01T14:56:06;100247.40;;;34.70
67353;BMP180;54238;52.278;21.056;2022-08-01T14:58:34;100244.40;;;34.08
67353;BMP180;54238;52.278;21.056;2022-08-01T15:01:08;100246.80;;;33.58
67353;BMP180;54238;52.278;21.056;2022-08-01T15:03:40;100246.60;;;32.76
67353;BMP180;54238;52.278;21.056;2022-08-01T15:06:12;100249.20;;;32.30
67353;BMP180;54238;52.278;21.056;2022-08-01T15:08:39;100251.20;;;32.16
67353;BMP180;54238;52.278;21.056;2022-08-01T15:11:06;100250.60;;;32.10